createdAt,value
2022-08-26T10:23:31.035Z,5.15
2022-08-26T10:26:10.829Z,3.78
2022-08-26T10:28:56.302Z,4.65
2022-08-26T10:31:40.618Z,4.35
2022-08-26T10:34:12.357Z,6.53
2022-08-26T10:37:14.473Z,6.95
2022-08-26T10:39:58.707Z,5.32
2022-08-26T10:42:42.850Z,5.10
2022-08-26T10:45:25.394Z,4.63
2022-08-26T10:48:07.779Z,5.05
2022-08-26T10:50:42.940Z,6.55
2022-08-26T10:53:25.129Z,5.30
2022-08-26T10:56:19.016Z,5.13
2022-08-26T10:59:10.226Z,4.97
2022-08-26T11:02:40.936Z,7.35
2022-08-26T11:05:16.961Z,7.57
2022-08-26T11:07:47.166Z,4.45
2022-08-26T11:10:17.338Z,5.95
2022-08-26T11:12:49.237Z,6.38
2022-08-26T11:15:24.583Z,5.43
2022-08-26T11:17:52.681Z,4.35
2022-08-26T11:20:23.876Z,6.22
2022-08-26T11:22:54.299Z,5.18
2022-08-26T11:25:29.725Z,6.38
2022-08-26T11:28:00.699Z,4.53
2022-08-26T11:30:34.324Z,5.38
2022-08-26T11:33:02.279Z,4.43
2022-08-26T11:35:47.293Z,4.13
2022-08-26T11:38:28.838Z,4.90
2022-08-26T11:41:11.535Z,3.20
2022-08-26T11:43:40.741Z,6.43
2022-08-26T11:46:11.567Z,6.38
2022-08-26T11:48:42.386Z,4.57
2022-08-26T11:51:23.488Z,4.93
2022-08-26T11:53:51.456Z,4.75
2022-08-26T11:56:34.347Z,4.15
2022-08-26T11:59:09.928Z,4.68
2022-08-26T12:01:43.012Z,4.35
2022-08-26T12:04:17.670Z,4.97
2022-08-26T12:06:49.076Z,3.88
2022-08-26T12:09:23.227Z,4.30
2022-08-26T12:11:51.309Z,4.35
2022-08-26T12:14:24.315Z,4.85
2022-08-26T12:16:54.189Z,4.80
2022-08-26T12:19:26.311Z,3.22
2022-08-26T12:22:22.290Z,4.28
2022-08-26T12:24:56.855Z,7.20
2022-08-26T12:27:39.886Z,4.90
2022-08-26T12:30:23.412Z,4.15
2022-08-26T12:33:03.072Z,6.35
2022-08-26T12:35:49.311Z,5.95
2022-08-26T12:38:20.229Z,4.75
2022-08-26T12:40:50.328Z,4.20
2022-08-26T12:43:39.377Z,4.30
2022-08-26T12:46:09.225Z,4.95
2022-08-26T12:48:40.547Z,3.97
2022-08-26T12:51:22.252Z,4.40
2022-08-26T12:53:50.286Z,4.40
2022-08-26T12:56:27.887Z,5.32
2022-08-26T12:59:11.162Z,5.90
2022-08-26T13:01:44.966Z,5.43
2022-08-26T13:04:39.003Z,4.68
2022-08-26T13:07:26.621Z,5.53
2022-08-26T13:09:59.287Z,7.10
2022-08-26T13:12:37.278Z,6.78
2022-08-26T13:15:06.393Z,6.60
2022-08-26T13:22:07.641Z,7.75
2022-08-26T13:24:38.579Z,6.85
2022-08-26T13:27:08.842Z,9.07
2022-08-26T13:29:36.962Z,3.85
2022-08-26T13:32:07.805Z,6.05
2022-08-26T13:34:37.839Z,6.72
2022-08-26T13:37:06.386Z,5.70
2022-08-26T13:39:34.427Z,5.80
2022-08-26T13:42:02.183Z,11.98
2022-08-26T13:44:30.018Z,5.40
2022-08-26T13:46:57.849Z,4.18
2022-08-26T13:49:25.662Z,4.55
2022-08-26T13:51:53.589Z,5.55
2022-08-26T13:54:21.933Z,11.60
2022-08-26T13:56:49.718Z,11.48
2022-08-26T13:59:17.574Z,7.82
2022-08-26T14:01:45.556Z,10.55
2022-08-26T14:05:04.531Z,6.10
2022-08-26T14:07:33.364Z,5.57
2022-08-26T14:10:01.686Z,5.72
2022-08-26T14:12:29.462Z,6.97
2022-08-26T14:14:57.267Z,8.93
2022-08-26T14:17:26.294Z,7.22
2022-08-26T14:19:58.560Z,5.60
2022-08-26T14:22:26.297Z,11.75
2022-08-26T14:24:54.384Z,8.60
2022-08-26T14:27:22.196Z,9.45
2022-08-26T14:29:49.923Z,9.65
2022-08-26T14:32:23.843Z,6.35
2022-08-26T14:34:52.259Z,6.88
2022-08-26T14:37:20.420Z,7.80
2022-08-26T14:39:48.842Z,5.15
2022-08-26T14:42:22.657Z,4.38
2022-08-26T14:44:56.157Z,5.25
2022-08-26T14:47:24.055Z,3.75
2022-08-26T14:49:52.093Z,4.65
2022-08-26T14:52:19.907Z,7.75
2022-08-26T14:54:47.689Z,5.65
2022-08-26T14:57:22.855Z,3.90
2022-08-26T14:59:50.722Z,4.90
2022-08-26T15:02:32.605Z,6.40
2022-08-26T15:07:30.394Z,5.75
2022-08-26T15:09:58.166Z,5.97
2022-08-26T15:12:26.157Z,8.52
2022-08-26T15:14:54.085Z,6.85
2022-08-26T15:17:21.829Z,6.15
2022-08-26T15:19:49.902Z,6.28
2022-08-26T15:22:17.802Z,9.18
2022-08-26T15:24:45.534Z,5.93
2022-08-26T15:27:13.342Z,9.95
2022-08-26T15:29:41.535Z,5.22
2022-08-26T15:32:09.950Z,4.88
2022-08-26T15:34:38.223Z,6.53
2022-08-26T15:37:06.426Z,7.20
2022-08-26T15:39:34.812Z,7.68
2022-08-26T15:42:02.852Z,5.57
2022-08-26T15:44:30.950Z,7.07
2022-08-26T15:46:59.111Z,8.65
2022-08-26T15:49:27.712Z,6.43
2022-08-26T15:51:55.815Z,6.68
2022-08-26T15:54:23.898Z,6.20
2022-08-26T15:56:53.104Z,6.97
2022-08-26T15:59:23.020Z,7.45
2022-08-26T16:01:52.219Z,10.07
2022-08-26T16:04:20.986Z,6.65
2022-08-26T16:06:51.521Z,7.60
2022-08-26T16:09:23.583Z,6.65
2022-08-26T16:11:56.741Z,6.78
2022-08-26T16:14:25.772Z,7.10
2022-08-26T16:16:53.769Z,6.43
2022-08-26T16:19:21.788Z,7.25
2022-08-26T16:21:51.462Z,9.40
2022-08-26T16:24:24.788Z,6.43
2022-08-26T16:26:55.187Z,9.00
2022-08-26T16:29:23.012Z,7.75
2022-08-26T16:31:53.274Z,7.63
2022-08-26T16:34:21.915Z,8.18
2022-08-26T16:36:49.711Z,9.25
2022-08-26T16:39:17.500Z,8.23
2022-08-26T16:41:45.350Z,6.65
2022-08-26T16:44:13.142Z,10.02
2022-08-26T16:46:41.181Z,6.97
2022-08-26T16:49:09.065Z,6.53
2022-08-26T16:51:37.735Z,5.57
2022-08-26T16:54:08.735Z,7.97
2022-08-26T16:56:38.947Z,7.20
2022-08-26T16:59:09.527Z,7.55
2022-08-26T17:01:37.475Z,7.50
2022-08-26T17:04:05.296Z,8.70
2022-08-26T17:06:34.081Z,6.22
2022-08-26T17:09:01.953Z,6.93
2022-08-26T17:11:29.935Z,6.57
2022-08-26T17:13:57.749Z,7.28
2022-08-26T17:16:27.001Z,7.22
2022-08-26T17:18:57.236Z,6.85
2022-08-26T17:21:26.069Z,8.05
2022-08-26T17:23:54.476Z,11.52
2022-08-26T17:26:22.520Z,6.07
2022-08-26T17:28:50.907Z,6.55
2022-08-26T17:31:19.034Z,8.40
2022-08-26T17:33:53.186Z,7.82
2022-08-26T17:36:23.071Z,8.18
2022-08-26T17:38:57.581Z,9.45
2022-08-26T17:41:26.374Z,7.80
2022-08-26T17:43:54.214Z,5.85
2022-08-26T17:46:22.250Z,7.60
2022-08-26T17:48:50.161Z,9.75
2022-08-26T17:51:19.709Z,9.15
2022-08-26T17:53:48.636Z,7.13
2022-08-26T17:56:19.086Z,6.03
2022-08-26T17:58:50.557Z,8.23
2022-08-26T18:01:26.096Z,6.57
2022-08-26T18:04:00.082Z,5.68
2022-08-26T18:06:30.688Z,6.55
2022-08-26T18:09:00.149Z,5.88
2022-08-26T18:11:28.829Z,22.85
2022-08-26T18:13:56.972Z,7.55
2022-08-26T18:16:24.956Z,10.23
2022-08-26T18:18:54.099Z,10.63
2022-08-26T18:21:25.007Z,10.30
2022-08-26T18:23:54.216Z,9.25
2022-08-26T18:26:25.887Z,7.80
2022-08-26T18:28:53.886Z,11.55
2022-08-26T18:31:21.879Z,6.20
2022-08-26T18:33:50.236Z,7.75
2022-08-26T18:36:21.677Z,11.10
2022-08-26T18:38:51.033Z,10.73
2022-08-26T18:41:21.114Z,8.55
2022-08-26T18:43:50.563Z,8.63
2022-08-26T18:46:23.105Z,8.10
2022-08-26T18:48:51.733Z,9.30
2022-08-26T18:51:23.727Z,6.20
2022-08-26T18:53:51.948Z,8.57
2022-08-26T18:56:20.122Z,7.03
2022-08-26T18:58:48.295Z,9.25
2022-08-26T19:01:17.914Z,8.85
2022-08-26T19:03:46.439Z,8.15
2022-08-26T19:06:20.126Z,8.68
2022-08-26T19:08:49.934Z,7.75
2022-08-26T19:11:32.524Z,9.88
2022-08-26T19:14:10.296Z,9.43
2022-08-26T19:19:07.048Z,9.20
2022-08-26T19:21:36.570Z,10.68
2022-08-26T19:24:08.600Z,9.20
2022-08-26T19:26:38.936Z,8.83
2022-08-26T19:29:06.930Z,9.68
2022-08-26T19:31:35.199Z,8.20
2022-08-26T19:34:05.349Z,8.88
2022-08-26T19:36:34.335Z,7.80
2022-08-26T19:39:05.275Z,7.57
2022-08-26T19:41:38.112Z,10.85
2022-08-26T19:44:12.923Z,10.27
2022-08-26T19:46:41.042Z,8.68
2022-08-26T19:49:08.857Z,9.85
2022-08-26T19:51:37.027Z,8.57
2022-08-26T19:54:05.203Z,8.15
2022-08-26T19:56:33.201Z,8.77
2022-08-26T19:59:01.728Z,12.90
2022-08-26T20:01:30.810Z,11.48
2022-08-26T20:03:58.569Z,8.57
2022-08-26T20:06:26.486Z,8.15
2022-08-26T20:08:56.225Z,9.90
2022-08-26T20:11:24.266Z,9.32
2022-08-26T20:13:52.167Z,11.90
2022-08-26T20:16:20.294Z,12.10
2022-08-26T20:19:06.533Z,9.32
2022-08-26T20:21:38.162Z,13.98
2022-08-26T20:24:13.922Z,11.23
2022-08-26T20:26:43.681Z,11.75
2022-08-26T20:29:17.293Z,8.60
2022-08-26T20:31:46.043Z,11.73
2022-08-26T20:34:15.582Z,11.93
2022-08-26T20:36:43.834Z,9.75
2022-08-26T20:39:12.291Z,9.82
2022-08-26T20:41:40.551Z,8.98
2022-08-26T20:44:09.471Z,10.93
2022-08-26T20:46:37.582Z,7.20
2022-08-26T20:49:07.511Z,8.18
2022-08-26T20:51:37.460Z,11.30
2022-08-26T20:54:07.039Z,9.63
2022-08-26T20:56:35.639Z,8.77
2022-08-26T20:59:06.752Z,11.10
2022-08-26T21:01:37.290Z,8.52
2022-08-26T21:04:13.930Z,10.93
2022-08-26T21:06:51.586Z,9.95
2022-08-26T21:09:23.052Z,9.65
2022-08-26T21:11:51.901Z,9.38
2022-08-26T21:14:20.674Z,14.70
2022-08-26T21:16:48.618Z,9.65
2022-08-26T21:19:18.718Z,10.57
2022-08-26T21:21:48.129Z,9.32
2022-08-26T21:24:16.495Z,9.48
2022-08-26T21:26:44.904Z,13.75
2022-08-26T21:29:13.801Z,11.23
2022-08-26T21:31:46.346Z,7.93
2022-08-26T21:34:23.730Z,8.55
2022-08-26T21:36:51.479Z,11.07
2022-08-26T21:39:19.687Z,11.00
2022-08-26T21:41:47.465Z,10.95
2022-08-26T21:44:16.808Z,8.93
2022-08-26T21:46:45.805Z,10.85
2022-08-26T21:49:15.944Z,9.45
2022-08-26T21:51:46.146Z,10.02
2022-08-26T21:54:14.675Z,9.55
2022-08-26T21:56:46.666Z,11.05
2022-08-26T21:59:17.221Z,9.60
2022-08-26T22:01:45.192Z,9.40
2022-08-26T22:04:13.367Z,11.18
2022-08-26T22:06:47.143Z,12.85
2022-08-26T22:09:17.809Z,11.32
2022-08-26T22:11:47.422Z,9.20
2022-08-26T22:14:16.614Z,11.20
2022-08-26T22:16:50.700Z,11.85
2022-08-26T22:19:20.177Z,9.60
2022-08-26T22:21:50.105Z,10.52
2022-08-26T22:24:18.857Z,14.10
2022-08-26T22:26:47.225Z,10.52
2022-08-26T22:29:15.453Z,14.07
2022-08-26T22:31:43.363Z,12.63
2022-08-26T22:34:17.204Z,13.93
2022-08-26T22:36:47.006Z,11.35
2022-08-26T22:39:17.633Z,12.73
2022-08-26T22:41:46.086Z,9.07
2022-08-26T22:44:14.949Z,11.05
2022-08-26T22:46:43.819Z,11.65
2022-08-26T22:49:15.978Z,13.00
2022-08-26T22:51:45.208Z,9.13
2022-08-26T22:54:13.921Z,10.43
2022-08-26T22:56:42.071Z,12.02
2022-08-26T22:59:10.646Z,11.57
2022-08-26T23:01:42.386Z,10.38
2022-08-26T23:04:11.133Z,11.40
2022-08-26T23:06:41.287Z,11.35
2022-08-26T23:09:09.655Z,9.93
2022-08-26T23:11:42.313Z,13.65
2022-08-26T23:14:10.972Z,12.05
2022-08-26T23:16:41.583Z,11.98
2022-08-26T23:19:12.256Z,9.55
2022-08-26T23:21:40.679Z,11.25
2022-08-26T23:24:10.045Z,11.57
2022-08-26T23:26:38.983Z,13.35
2022-08-26T23:29:08.587Z,11.93
2022-08-26T23:31:41.740Z,13.85
2022-08-26T23:34:29.818Z,11.70
2022-08-26T23:36:59.301Z,13.80
2022-08-26T23:39:29.417Z,11.05
2022-08-26T23:41:58.045Z,10.18
2022-08-26T23:44:26.595Z,11.98
2022-08-26T23:46:55.382Z,19.25
2022-08-26T23:49:23.447Z,17.92
2022-08-26T23:52:09.888Z,12.13
2022-08-26T23:54:39.136Z,12.40
2022-08-26T23:57:08.116Z,13.13
2022-08-26T23:59:38.034Z,13.85
